CET,Max TemperatureF,Mean TemperatureF,Min TemperatureF,Max Dew PointF,MeanDew PointF,Min DewpointF,Max Humidity, Mean Humidity, Min Humidity, Max Sea Level PressureIn, Mean Sea Level PressureIn, Min Sea Level PressureIn, Max VisibilityMiles, Mean VisibilityMiles, Min VisibilityMiles, Max Wind SpeedMPH, Mean Wind SpeedMPH, Max Gust SpeedMPH,PrecipitationIn, CloudCover, Events, WindDirDegrees
2012-11-1,23,19,15,18,11,1,93,74,33,29.50,29.40,29.27,9,2,0,37,12,,0.02,2,Fog-Snow,194
2012-11-2,17,15,13,16,13,9,93,87,71,29.92,29.70,29.53,12,3,0,23,18,,0.00,3,Fog-Snow,206
2012-11-3,23,19,15,18,10,0,93,65,23,29.92,29.90,29.89,19,4,0,34,20,,0.00,3,Fog,196
2012-11-4,27,24,21,25,20,5,100,81,32,29.89,29.79,29.62,6,1,0,46,32,,0.02,5,Fog-Snow,190
2012-11-5,19,16,12,25,7,-9,93,62,28,29.80,29.66,29.56,7,4,0,24,10,,0.00,2,Fog,202
2012-11-6,15,10,6,5,1,-18,85,62,31,30.01,29.87,29.77,19,6,0,34,11,,0.00,3,Fog-Snow,11
2012-11-7,25,16,6,16,2,-18,86,50,16,30.45,30.26,30.04,19,9,6,43,29,,0.00,3,,82
2012-11-8,27,25,23,18,2,-8,74,36,11,30.45,30.30,30.18,7,6,6,28,10,,0.00,2,,219
2012-11-9,41,32,22,25,14,-4,93,58,13,30.24,30.18,30.09,16,5,0,28,18,,0.00,2,Fog-Snow,204
2012-11-10,24,22,21,23,19,18,93,85,75,30.06,29.92,29.80,0,0,0,40,22,47,0.02,,Fog-Snow,188
2012-11-11,27,24,21,21,17,9,86,75,51,30.06,29.86,29.74,16,2,0,22,15,,0.03,1,Fog-Snow,176
2012-11-12,25,22,19,0,-12,-22,42,20,4,30.30,30.19,30.09,19,9,6,15,8,,0.00,,,193
2012-11-13,28,24,21,-5,-17,-22,24,13,4,30.45,30.39,30.30,6,6,6,14,9,,0.00,,,122
2012-11-14,31,28,24,-20,-21,-22,12,9,4,30.42,30.40,30.36,12,7,6,23,15,,0.00,,,66
2012-11-15,34,30,27,-17,-19,-21,11,9,4,30.39,30.32,30.27,19,9,6,20,9,,0.00,,,82
2012-11-16,33,30,28,-13,-18,-22,15,10,4,30.27,30.23,30.18,12,7,6,16,11,,0.00,,,138
2012-11-17,28,26,23,-11,-17,-22,18,12,4,30.18,30.04,29.95,19,9,6,14,8,,0.00,,,185
2012-11-18,26,24,22,-13,-18,-22,19,13,4,29.98,29.94,29.92,6,6,6,8,5,,0.00,,,190
2012-11-19,30,26,21,5,-11,-22,43,19,4,30.09,30.03,29.98,6,6,6,8,3,,0.00,,,159
2012-11-20,29,26,23,12,9,4,59,44,27,30.18,30.14,30.09,6,6,6,12,3,,0.00,,,125
2012-11-21,28,26,23,18,10,-22,80,48,12,30.18,30.17,30.15,6,6,6,18,8,,0.00,5,,192
2012-11-22,24,20,17,21,17,12,93,82,66,30.21,30.17,30.15,6,4,0,16,8,,0.00,5,Fog,199
2012-11-23,25,21,17,-5,-21,-22,35,12,4,30.27,30.20,30.15,19,8,6,17,8,,0.00,4,,121
2012-11-24,27,24,21,12,3,-22,55,37,4,30.24,30.22,30.21,19,8,6,25,15,,0.00,3,,203
2012-11-25,26,24,23,23,19,7,100,80,31,30.21,30.17,30.09,12,4,0,38,17,,0.00,3,Fog,201
2012-11-26,24,22,19,23,20,17,100,90,71,30.06,29.95,29.83,0,0,0,31,24,,0.04,,Fog-Snow,184
2012-11-27,19,18,17,18,16,15,100,87,80,29.80,29.66,29.56,0,0,0,17,15,,0.12,,Fog-Snow,165
2012-11-28,21,18,15,19,16,14,93,85,76,29.56,29.31,29.15,0,0,0,25,12,,0.24,,Fog-Snow,83
2012-11-29,10,6,3,14,5,-2,93,81,70,29.21,29.18,29.15,0,0,0,25,11,,0.04,,Fog-Snow,47
2012-11-30,19,10,2,18,9,-3,93,82,71,29.47,29.34,29.21,6,3,0,23,12,,0.00,5,Fog-Snow,81